Time;durP1;ratioP1;P1;durP2;ratioP2;P2;SDS_P1;SDS_P2;PMS_P1;PMS_P2;Temp;Humidity;BMP_temperature;BMP_pressure;BME280_temperature;BME280_humidity;BME280_pressure;Samples;Min_cycle;Max_cycle;Signal;HPM_P1;HPM_P2
2023/09/21 00:01:52;;;;;;;6.30;5.90;;;;;;;16.88;100.00;100528.20;88478;285;137515;-68
2023/09/21 00:03:56;;;;;;;6.70;6.20;;;;;;;16.88;100.00;100526.14;88590;285;22482;-67
2023/09/21 00:05:58;;;;;;;7.70;7.10;;;;;;;16.87;100.00;100531.67;88318;283;136630;-68
2023/09/21 00:08:00;;;;;;;6.20;5.80;;;;;;;16.86;100.00;100532.16;88930;278;22478;-67
2023/09/21 00:10:07;;;;;;;6.50;6.00;;;;;;;16.85;100.00;100532.03;89578;280;25223;-66
2023/09/21 00:12:10;;;;;;;6.80;6.20;;;;;;;16.82;100.00;100530.58;89708;280;136594;-67
2023/09/21 00:14:14;;;;;;;8.30;7.50;;;;;;;16.81;100.00;100533.88;89649;281;22543;-67
2023/09/21 00:16:18;;;;;;;6.40;6.00;;;;;;;16.80;100.00;100533.04;89165;277;136795;-68
2023/09/21 00:18:23;;;;;;;7.00;6.40;;;;;;;16.79;100.00;100531.62;88810;280;25076;-67
2023/09/21 00:20:42;;;;;;;7.20;6.70;;;;;;;16.79;100.00;100532.58;88623;280;136670;-66
2023/09/21 00:22:44;;;;;;;5.70;5.40;;;;;;;16.77;100.00;100530.86;88821;281;25077;-68
2023/09/21 00:24:47;;;;;;;6.30;5.70;;;;;;;16.76;100.00;100536.43;88592;278;136850;-70
2023/09/21 00:26:51;;;;;;;6.40;5.80;;;;;;;16.76;100.00;100536.30;88555;279;22543;-70
2023/09/21 00:28:53;;;;;;;6.50;6.10;;;;;;;16.74;100.00;100531.69;88576;280;136858;-69
2023/09/21 00:30:57;;;;;;;6.80;6.20;;;;;;;16.72;100.00;100531.21;88668;273;22878;-64
2023/09/21 00:32:59;;;;;;;6.20;5.80;;;;;;;16.68;100.00;100532.16;88610;273;136815;-67
2023/09/21 00:35:07;;;;;;;6.40;5.80;;;;;;;16.66;100.00;100532.55;88651;282;24431;-68
2023/09/21 00:37:11;;;;;;;6.40;6.00;;;;;;;16.64;100.00;100533.86;88520;274;136821;-62
2023/09/21 00:39:14;;;;;;;6.20;5.80;;;;;;;16.63;100.00;100532.21;88575;282;22528;-68
2023/09/21 00:41:18;;;;;;;6.70;6.20;;;;;;;16.61;100.00;100536.46;88502;282;136844;-66
2023/09/21 00:43:25;;;;;;;7.00;6.40;;;;;;;16.60;100.00;100536.42;88641;275;22530;-68
2023/09/21 00:45:27;;;;;;;7.10;6.50;;;;;;;16.61;100.00;100538.20;88509;281;137015;-67
2023/09/21 00:47:28;;;;;;;6.30;5.80;;;;;;;16.63;100.00;100537.64;88537;281;24116;-67
2023/09/21 00:49:31;;;;;;;6.00;5.60;;;;;;;16.64;100.00;100532.08;88445;278;136702;-66
2023/09/21 00:51:34;;;;;;;5.70;5.30;;;;;;;16.63;100.00;100531.34;88581;281;25210;-67
2023/09/21 00:53:39;;;;;;;6.30;5.90;;;;;;;16.62;100.00;100534.25;88527;280;137142;-68
2023/09/21 00:55:50;;;;;;;7.50;6.80;;;;;;;16.63;100.00;100532.54;88645;280;25236;-66
2023/09/21 00:57:55;;;;;;;6.30;5.80;;;;;;;16.65;100.00;100535.39;88498;275;136657;-65
2023/09/21 00:59:57;;;;;;;8.70;7.60;;;;;;;16.68;100.00;100536.13;88662;273;25210;-66
2023/09/21 01:02:03;;;;;;;10.00;9.00;;;;;;;16.71;100.00;100538.37;88528;273;136336;-66
2023/09/21 01:04:06;;;;;;;8.80;7.90;;;;;;;16.73;100.00;100537.23;88600;277;136913;-64
2023/09/21 01:06:10;;;;;;;6.90;6.50;;;;;;;16.74;100.00;100540.63;88627;281;25928;-66
2023/09/21 01:08:17;;;;;;;7.10;6.40;;;;;;;16.77;100.00;100539.52;88450;273;137129;-65
2023/09/21 01:10:21;;;;;;;7.60;7.00;;;;;;;16.77;100.00;100538.86;88746;273;22576;-68
2023/09/21 01:12:25;;;;;;;5.90;5.40;;;;;;;16.76;100.00;100540.73;88628;273;137341;-69
2023/09/21 01:14:27;;;;;;;6.30;5.80;;;;;;;16.74;100.00;100544.55;88646;273;25118;-66
2023/09/21 01:16:30;;;;;;;6.10;5.60;;;;;;;16.72;100.00;100546.23;88516;281;136851;-67
2023/09/21 01:18:32;;;;;;;6.10;5.60;;;;;;;16.69;100.00;100545.52;88585;273;24202;-68
2023/09/21 01:20:35;;;;;;;6.50;6.00;;;;;;;16.65;100.00;100543.83;88492;274;136296;-63
2023/09/21 01:22:39;;;;;;;5.00;4.70;;;;;;;16.64;100.00;100544.13;88419;274;25271;-67
2023/09/21 01:24:41;;;;;;;6.40;6.00;;;;;;;16.57;100.00;100537.42;88475;273;136844;-68
2023/09/21 01:26:43;;;;;;;6.90;6.30;;;;;;;16.59;100.00;100546.58;88521;281;25122;-66
2023/09/21 01:28:48;;;;;;;6.80;6.20;;;;;;;16.55;100.00;100545.34;88460;282;137678;-67
2023/09/21 01:30:51;;;;;;;6.10;5.60;;;;;;;16.52;100.00;100546.52;88528;274;22531;-65
2023/09/21 01:32:53;;;;;;;6.90;6.30;;;;;;;16.48;100.00;100546.19;88477;281;138686;-67
2023/09/21 01:34:55;;;;;;;6.30;5.80;;;;;;;16.45;100.00;100543.73;88620;281;25045;-68
2023/09/21 01:36:57;;;;;;;6.40;5.90;;;;;;;16.43;100.00;100542.44;88427;273;137408;-66
2023/09/21 01:38:59;;;;;;;6.30;5.80;;;;;;;16.34;100.00;100531.98;88521;281;25080;-66
2023/09/21 01:41:01;;;;;;;6.20;5.80;;;;;;;16.39;100.00;100541.52;88469;273;136687;-68
2023/09/21 01:43:14;;;;;;;5.60;5.20;;;;;;;16.37;100.00;100538.77;88502;283;22545;-66
2023/09/21 01:45:16;;;;;;;5.70;5.30;;;;;;;16.34;100.00;100539.58;88381;278;136167;-68
2023/09/21 01:47:19;;;;;;;6.50;6.00;;;;;;;16.30;100.00;100538.80;88771;277;22533;-66
2023/09/21 01:49:21;;;;;;;6.60;6.10;;;;;;;16.29;100.00;100543.11;88376;273;136350;-65
2023/09/21 01:51:23;;;;;;;6.50;6.10;;;;;;;16.29;100.00;100545.47;88563;277;25118;-66
2023/09/21 01:53:25;;;;;;;5.90;5.40;;;;;;;16.29;100.00;100550.39;88689;277;136922;-67
2023/09/21 01:55:26;;;;;;;7.30;6.70;;;;;;;16.29;100.00;100549.69;88513;282;22561;-68
2023/09/21 01:57:29;;;;;;;7.20;6.60;;;;;;;16.33;100.00;100552.41;88542;273;136734;-68
2023/09/21 01:59:31;;;;;;;6.70;6.20;;;;;;;16.38;100.00;100552.38;88517;281;25106;-68
2023/09/21 02:01:33;;;;;;;7.40;6.90;;;;;;;16.44;100.00;100552.36;88679;280;137669;-78
2023/09/21 02:03:35;;;;;;;6.20;5.80;;;;;;;16.48;100.00;100552.27;88995;277;25118;-67
2023/09/21 02:05:39;;;;;;;6.80;6.30;;;;;;;16.49;100.00;100554.50;88788;280;138408;-67
2023/09/21 02:07:43;;;;;;;6.90;6.30;;;;;;;16.51;100.00;100556.64;88499;275;22522;-70
2023/09/21 02:09:45;;;;;;;6.50;5.90;;;;;;;16.55;100.00;100555.28;88704;277;137228;-70
2023/09/21 02:11:47;;;;;;;6.50;6.00;;;;;;;16.58;100.00;100554.63;88558;282;22526;-70
2023/09/21 02:13:49;;;;;;;6.50;5.90;;;;;;;16.59;100.00;100553.34;88543;275;138357;-69
2023/09/21 02:15:51;;;;;;;6.70;6.20;;;;;;;16.60;100.00;100552.85;88484;281;24015;-68
2023/09/21 02:17:56;;;;;;;6.60;5.90;;;;;;;16.61;100.00;100552.02;88622;281;136401;-70
2023/09/21 02:19:59;;;;;;;6.00;5.60;;;;;;;16.60;100.00;100548.27;88679;281;22540;-67
2023/09/21 02:22:00;;;;;;;6.50;6.00;;;;;;;16.52;100.00;100548.63;88594;281;136687;-70
2023/09/21 02:24:04;;;;;;;6.60;6.20;;;;;;;16.46;100.00;100546.66;88523;282;138779;-71
2023/09/21 02:26:07;;;;;;;7.40;6.80;;;;;;;16.44;100.00;100546.02;88779;277;24023;-70
2023/09/21 02:28:09;;;;;;;7.20;6.60;;;;;;;16.43;100.00;100546.85;88553;277;137302;-70
2023/09/21 02:30:13;;;;;;;6.70;6.10;;;;;;;16.42;100.00;100546.16;88785;274;26179;-65
2023/09/21 02:32:15;;;;;;;6.20;5.70;;;;;;;16.42;100.00;100539.55;88512;280;138536;-71
2023/09/21 02:34:17;;;;;;;6.40;6.00;;;;;;;16.42;100.00;100540.96;88802;273;22535;-67
2023/09/21 02:36:20;;;;;;;5.90;5.50;;;;;;;16.40;100.00;100540.89;88472;273;137012;-69
2023/09/21 02:38:22;;;;;;;6.30;5.90;;;;;;;16.33;100.00;100526.36;88610;282;25329;-68
2023/09/21 02:40:24;;;;;;;8.50;6.40;;;;;;;16.38;100.00;100540.63;88430;280;137059;-67
2023/09/21 02:42:26;;;;;;;6.40;6.00;;;;;;;16.37;100.00;100542.04;88719;279;25147;-67
2023/09/21 02:44:29;;;;;;;6.00;5.60;;;;;;;16.34;100.00;100542.90;88615;280;139003;-68
2023/09/21 02:46:32;;;;;;;6.10;5.60;;;;;;;16.32;100.00;100546.71;88824;280;25115;-68
2023/09/21 02:48:34;;;;;;;5.80;5.40;;;;;;;16.33;100.00;100545.87;88461;282;136930;-67
2023/09/21 02:50:36;;;;;;;7.00;6.40;;;;;;;16.35;100.00;100548.77;88856;275;26295;-68
2023/09/21 02:52:38;;;;;;;6.10;5.60;;;;;;;16.33;100.00;100547.48;88739;281;138065;-68
2023/09/21 02:54:41;;;;;;;8.20;7.00;;;;;;;16.30;100.00;100549.18;88599;281;25155;-68
2023/09/21 02:56:43;;;;;;;6.40;5.90;;;;;;;16.28;100.00;100548.38;88766;280;137034;-68
2023/09/21 02:58:46;;;;;;;6.70;6.20;;;;;;;16.27;100.00;100548.39;88959;281;23053;-68
2023/09/21 03:00:50;;;;;;;6.90;6.30;;;;;;;16.25;100.00;100548.80;88815;281;138270;-64
2023/09/21 03:02:55;;;;;;;6.90;6.30;;;;;;;16.23;100.00;100547.80;88632;274;22539;-67
2023/09/21 03:04:57;;;;;;;6.30;5.70;;;;;;;16.24;100.00;100545.35;88708;281;137006;-68
2023/09/21 03:06:59;;;;;;;5.50;5.20;;;;;;;16.25;100.00;100546.91;88784;282;22555;-68
2023/09/21 03:09:01;;;;;;;6.60;6.00;;;;;;;16.24;100.00;100551.71;88735;281;136949;-68
2023/09/21 03:11:05;;;;;;;6.20;5.80;;;;;;;16.25;100.00;100552.69;88712;279;24191;-69
2023/09/21 03:13:15;;;;;;;5.40;5.10;;;;;;;16.25;100.00;100556.72;88592;281;136788;-69
2023/09/21 03:15:19;;;;;;;5.80;5.40;;;;;;;16.23;100.00;100560.25;88609;280;22703;-69
2023/09/21 03:17:21;;;;;;;7.40;6.70;;;;;;;16.22;100.00;100561.23;88576;282;136898;-68
2023/09/21 03:19:25;;;;;;;6.60;6.00;;;;;;;16.23;100.00;100558.64;88754;281;22522;-70
2023/09/21 03:21:27;;;;;;;7.40;6.70;;;;;;;16.22;100.00;100559.42;88688;273;137378;-70
2023/09/21 03:23:30;;;;;;;6.50;6.00;;;;;;;16.16;100.00;100557.23;89001;281;24042;-66
2023/09/21 03:25:33;;;;;;;6.00;5.60;;;;;;;16.13;100.00;100559.63;88956;281;137158;-68
2023/09/21 03:27:35;;;;;;;6.20;5.80;;;;;;;16.10;100.00;100557.33;88855;281;22540;-68
2023/09/21 03:29:37;;;;;;;7.50;6.80;;;;;;;16.12;100.00;100565.14;88714;278;137364;-68
2023/09/21 03:31:38;;;;;;;7.10;6.50;;;;;;;16.13;100.00;100565.77;88628;273;22599;-68
2023/09/21 03:33:41;;;;;;;7.60;7.00;;;;;;;16.09;100.00;100568.31;88617;281;137103;-68
2023/09/21 03:35:43;;;;;;;6.50;5.90;;;;;;;16.08;100.00;100571.29;88511;275;22609;-68
2023/09/21 03:37:45;;;;;;;6.60;6.20;;;;;;;16.10;100.00;100573.91;88741;281;137240;-68
2023/09/21 03:39:48;;;;;;;7.70;6.70;;;;;;;16.10;100.00;100572.46;88742;277;22526;-68
2023/09/21 03:41:52;;;;;;;7.30;6.60;;;;;;;16.07;100.00;100576.05;88308;276;137914;-69
2023/09/21 03:43:55;;;;;;;7.50;6.90;;;;;;;16.11;100.00;100574.67;88495;275;22576;-69
2023/09/21 03:45:56;;;;;;;8.80;8.10;;;;;;;16.12;100.00;100575.14;88433;275;137341;-69
2023/09/21 03:48:04;;;;;;;8.00;7.30;;;;;;;16.15;100.00;100574.58;88507;281;22529;-68
2023/09/21 03:50:07;;;;;;;8.90;8.10;;;;;;;16.19;100.00;100574.80;88627;280;22553;-68
2023/09/21 03:52:16;;;;;;;8.40;7.70;;;;;;;16.22;100.00;100574.90;88817;274;136798;-69
2023/09/21 03:54:17;;;;;;;9.00;8.00;;;;;;;16.23;100.00;100574.03;88763;281;22537;-67
2023/09/21 03:56:19;;;;;;;8.70;7.90;;;;;;;16.23;100.00;100575.93;88588;275;137216;-67
2023/09/21 03:58:22;;;;;;;9.20;8.30;;;;;;;16.27;100.00;100577.60;88615;274;22706;-69
2023/09/21 04:00:31;;;;;;;7.40;6.80;;;;;;;16.31;100.00;100574.61;88466;281;137427;-68
2023/09/21 04:02:33;;;;;;;7.50;6.80;;;;;;;16.34;100.00;100573.73;88186;275;22534;-70
2023/09/21 04:04:36;;;;;;;7.40;6.90;;;;;;;16.37;100.00;100574.19;88821;273;137985;-67
2023/09/21 04:06:38;;;;;;;7.90;7.00;;;;;;;16.42;100.00;100568.48;88530;280;22516;-68
2023/09/21 04:08:40;;;;;;;9.40;8.50;;;;;;;16.47;100.00;100569.05;88503;278;136987;-67
2023/09/21 04:10:43;;;;;;;8.30;7.60;;;;;;;16.60;100.00;100572.91;88443;272;25164;-70
2023/09/21 04:12:45;;;;;;;9.00;8.20;;;;;;;16.71;100.00;100573.90;88319;274;137573;-69
2023/09/21 04:14:47;;;;;;;8.90;8.00;;;;;;;16.88;100.00;100575.65;88567;276;27322;-69
2023/09/21 04:16:49;;;;;;;9.00;8.40;;;;;;;17.07;100.00;100576.19;88356;273;137028;-68
2023/09/21 04:18:51;;;;;;;8.20;7.30;;;;;;;17.24;100.00;100577.10;88598;277;23160;-71
2023/09/21 04:20:53;;;;;;;9.80;8.90;;;;;;;17.37;100.00;100574.48;88437;277;136814;-69
2023/09/21 04:23:15;;;;;;;8.40;7.70;;;;;;;17.50;100.00;100575.52;88532;280;24328;-72
2023/09/21 04:25:18;;;;;;;8.00;7.40;;;;;;;17.66;100.00;100578.11;88421;278;137906;-71
2023/09/21 04:27:23;;;;;;;8.80;8.10;;;;;;;17.91;100.00;100579.22;88796;279;25130;-75
2023/09/21 04:29:26;;;;;;;8.40;7.70;;;;;;;18.23;100.00;100577.77;88556;277;137112;-76
2023/09/21 04:31:27;;;;;;;8.70;7.90;;;;;;;18.47;100.00;100580.73;88480;274;22553;-74
2023/09/21 04:33:29;;;;;;;8.80;8.10;;;;;;;18.62;100.00;100587.81;88616;272;137447;-73
2023/09/21 04:35:31;;;;;;;9.80;8.90;;;;;;;18.74;100.00;100584.89;88593;275;25087;-76
2023/09/21 04:37:34;;;;;;;9.20;7.70;;;;;;;18.82;100.00;100586.29;88367;272;139700;-77
2023/09/21 04:39:37;;;;;;;9.00;8.30;;;;;;;18.90;100.00;100585.17;88888;273;25573;-75
2023/09/21 04:41:39;;;;;;;7.80;7.10;;;;;;;18.95;100.00;100584.66;88749;274;137649;-75
2023/09/21 04:43:42;;;;;;;8.90;8.20;;;;;;;18.93;100.00;100584.52;88849;280;25118;-71
2023/09/21 04:45:48;;;;;;;10.10;9.40;;;;;;;18.93;100.00;100583.23;88620;280;136823;-73
2023/09/21 04:48:00;;;;;;;8.70;7.90;;;;;;;18.97;100.00;100585.20;88844;280;23974;-75
2023/09/21 04:50:10;;;;;;;10.80;9.80;;;;;;;19.00;100.00;100586.83;88720;280;22533;-75
2023/09/21 04:52:12;;;;;;;7.90;7.30;;;;;;;19.05;100.00;100587.90;88600;272;138657;-79
2023/09/21 04:54:15;;;;;;;9.40;8.60;;;;;;;19.09;100.00;100589.07;88857;273;22475;-75
2023/09/21 04:56:18;;;;;;;9.90;9.20;;;;;;;19.11;100.00;100590.86;88594;280;137362;-75
2023/09/21 04:58:20;;;;;;;9.90;9.00;;;;;;;19.08;100.00;100591.21;88526;281;23779;-77
2023/09/21 05:00:22;;;;;;;10.90;9.90;;;;;;;19.02;100.00;100588.77;88501;280;137327;-76
2023/09/21 05:02:25;;;;;;;9.20;8.40;;;;;;;19.01;100.00;100590.22;88616;280;22624;-70
2023/09/21 05:04:28;;;;;;;8.80;8.00;;;;;;;19.07;100.00;100589.14;88588;276;137500;-70
2023/09/21 05:06:30;;;;;;;8.80;7.90;;;;;;;19.10;100.00;100588.39;88954;279;23331;-74
2023/09/21 05:08:36;;;;;;;8.00;7.40;;;;;;;19.16;100.00;100588.14;88688;274;137431;-70
2023/09/21 05:10:40;;;;;;;8.00;7.40;;;;;;;19.21;100.00;100589.20;88963;280;22526;-72
2023/09/21 05:12:42;;;;;;;9.40;8.50;;;;;;;19.24;100.00;100586.67;88522;282;136775;-69
2023/09/21 05:14:48;;;;;;;9.50;8.40;;;;;;;19.31;100.00;100587.90;88653;273;22597;-68
2023/09/21 05:16:50;;;;;;;6.40;5.50;;;;;;;19.37;100.00;100594.59;88766;277;137376;-69
2023/09/21 05:18:53;;;;;;;8.00;7.30;;;;;;;19.37;100.00;100591.36;88501;277;22530;-71
2023/09/21 05:20:55;;;;;;;8.50;7.70;;;;;;;19.39;100.00;100597.44;88630;273;137960;-70
2023/09/21 05:22:57;;;;;;;10.80;9.70;;;;;;;19.41;100.00;100595.88;88896;276;22528;-72
2023/09/21 05:25:00;;;;;;;9.20;8.40;;;;;;;19.40;100.00;100591.90;88805;280;138142;-71
2023/09/21 05:27:06;;;;;;;8.30;7.60;;;;;;;19.43;100.00;100591.68;88833;280;24105;-69
2023/09/21 05:29:08;;;;;;;7.70;7.00;;;;;;;19.44;100.00;100587.70;88763;278;137904;-70
2023/09/21 05:31:10;;;;;;;7.60;6.90;;;;;;;19.44;100.00;100588.52;88839;273;25082;-72
2023/09/21 05:33:12;;;;;;;5.90;5.40;;;;;;;19.45;100.00;100593.77;88810;277;138659;-68
2023/09/21 05:35:16;;;;;;;7.80;5.80;;;;;;;19.42;100.00;100593.56;88676;280;25080;-74
2023/09/21 05:37:21;;;;;;;6.80;6.10;;;;;;;19.40;100.00;100592.33;88559;280;138467;-72
2023/09/21 05:39:23;;;;;;;7.30;6.70;;;;;;;19.39;100.00;100590.16;88706;276;22595;-72
2023/09/21 05:41:25;;;;;;;7.30;6.60;;;;;;;19.40;100.00;100594.45;88606;281;137170;-71
2023/09/21 05:43:29;;;;;;;7.60;7.00;;;;;;;19.43;100.00;100587.91;88839;273;22529;-71
2023/09/21 05:45:30;;;;;;;7.60;7.00;;;;;;;19.62;100.00;100599.02;88685;272;137656;-70
2023/09/21 05:47:32;;;;;;;7.80;7.00;;;;;;;19.78;100.00;100598.27;88844;273;25138;-71
2023/09/21 05:49:36;;;;;;;7.80;7.10;;;;;;;19.93;100.00;100598.75;88579;280;138173;-69
2023/09/21 05:51:39;;;;;;;7.80;7.10;;;;;;;20.15;100.00;100595.44;88891;280;23721;-72
2023/09/21 05:53:41;;;;;;;9.50;8.00;;;;;;;20.42;100.00;100596.14;88874;279;138068;-73
2023/09/21 05:55:43;;;;;;;6.60;6.20;;;;;;;20.67;100.00;100597.33;88704;275;22621;-73
2023/09/21 05:57:47;;;;;;;6.10;5.60;;;;;;;20.84;100.00;100592.91;88712;271;136848;-74
2023/09/21 05:59:50;;;;;;;6.40;4.90;;;;;;;21.01;100.00;100591.98;88956;272;23888;-71
2023/09/21 06:01:52;;;;;;;5.70;5.30;;;;;;;21.33;100.00;100598.23;88653;274;138480;-68
2023/09/21 06:03:54;;;;;;;6.20;5.70;;;;;;;21.71;100.00;100594.17;88590;280;26206;-66
2023/09/21 06:05:56;;;;;;;5.30;4.30;;;;;;;22.14;100.00;100594.57;88452;273;136260;-67
2023/09/21 06:07:58;;;;;;;5.00;4.50;;;;;;;22.59;99.40;100589.80;88577;280;25099;-73
2023/09/21 06:09:59;;;;;;;5.90;5.20;;;;;;;23.05;96.21;100589.78;88782;276;135778;-76
2023/09/21 06:12:01;;;;;;;6.00;5.30;;;;;;;23.47;93.74;100592.55;88911;272;22597;-74
2023/09/21 06:14:04;;;;;;;7.20;4.60;;;;;;;23.81;92.06;100592.31;88672;273;135832;-76
2023/09/21 06:16:08;;;;;;;4.80;4.20;;;;;;;24.23;88.89;100595.38;88737;280;137262;-75
2023/09/21 06:18:10;;;;;;;4.80;3.90;;;;;;;24.55;86.02;100590.61;88959;280;25077;-76
2023/09/21 06:20:12;;;;;;;4.40;4.00;;;;;;;24.89;83.76;100586.45;88701;273;136270;-75
2023/09/21 06:22:14;;;;;;;6.70;6.00;;;;;;;25.19;81.44;100589.73;88936;276;22548;-78
2023/09/21 06:24:18;;;;;;;4.40;4.00;;;;;;;25.33;79.49;100590.16;88729;280;137161;-76
2023/09/21 06:26:22;;;;;;;8.80;3.70;;;;;;;25.37;78.71;100593.31;88898;280;26334;-76
2023/09/21 06:28:24;;;;;;;4.20;3.20;;;;;;;25.33;77.62;100591.41;88703;273;137242;-78
2023/09/21 06:30:26;;;;;;;3.20;2.90;;;;;;;25.26;77.64;100591.23;88772;273;25080;-75
2023/09/21 06:32:29;;;;;;;5.20;3.50;;;;;;;25.04;78.27;100592.34;88675;281;136192;-75
2023/09/21 06:34:33;;;;;;;9.20;8.30;;;;;;;24.71;79.63;100593.21;88845;280;22547;-79
2023/09/21 06:36:37;;;;;;;4.00;3.70;;;;;;;24.25;79.77;100602.68;88752;275;135854;-76
2023/09/21 06:38:40;;;;;;;3.50;3.20;;;;;;;23.72;82.07;100602.52;88852;280;22465;-80
2023/09/21 06:40:42;;;;;;;3.10;2.60;;;;;;;23.24;83.12;100603.67;89155;280;137126;-79
2023/09/21 06:42:43;;;;;;;3.70;2.80;;;;;;;22.91;84.47;100599.55;89489;274;22523;-78
2023/09/21 06:44:45;;;;;;;3.60;3.30;;;;;;;22.61;86.19;100598.45;89456;280;137411;-80
2023/09/21 06:46:47;;;;;;;8.70;3.90;;;;;;;22.43;87.49;100597.74;89049;272;24097;-76
2023/09/21 06:48:49;;;;;;;4.30;3.00;;;;;;;22.30;88.79;100600.36;88774;279;136183;-78
2023/09/21 06:50:50;;;;;;;3.80;3.30;;;;;;;22.13;90.31;100604.54;88981;276;22548;-80
2023/09/21 06:52:52;;;;;;;4.20;3.60;;;;;;;21.92;91.42;100594.38;88818;279;135935;-78
2023/09/21 06:54:57;;;;;;;6.60;3.80;;;;;;;21.89;92.26;100601.52;88791;281;22938;-79
2023/09/21 06:57:03;;;;;;;3.60;3.40;;;;;;;21.78;93.28;100606.02;88807;280;136070;-76
2023/09/21 06:59:06;;;;;;;4.90;4.50;;;;;;;21.68;94.30;100604.52;88976;280;22629;-78
2023/09/21 07:01:09;;;;;;;3.60;3.30;;;;;;;21.63;95.05;100607.33;88910;282;136023;-76
2023/09/21 07:03:11;;;;;;;7.00;4.60;;;;;;;21.59;95.69;100604.03;89060;277;25095;-79
2023/09/21 07:05:14;;;;;;;5.20;4.70;;;;;;;21.62;95.69;100604.92;89231;279;136034;-78
2023/09/21 07:07:16;;;;;;;5.00;4.00;;;;;;;21.57;96.00;100605.16;89395;280;22530;-75
2023/09/21 07:09:18;;;;;;;4.00;3.70;;;;;;;21.62;96.93;100600.48;89602;280;136749;-74
2023/09/21 07:11:20;;;;;;;6.40;4.40;;;;;;;21.76;96.95;100599.91;89652;280;22524;-78
2023/09/21 07:13:22;;;;;;;4.30;4.00;;;;;;;21.92;95.77;100602.13;89655;278;136621;-81
2023/09/21 07:15:24;;;;;;;3.50;3.20;;;;;;;22.09;93.76;100602.50;89605;280;22527;-81
2023/09/21 07:17:25;;;;;;;3.00;2.80;;;;;;;22.20;91.98;100597.27;89231;280;137052;-80
2023/09/21 07:19:28;;;;;;;5.80;3.10;;;;;;;22.25;91.68;100596.83;89262;280;22526;-79
2023/09/21 07:21:30;;;;;;;1.80;1.70;;;;;;;22.32;89.88;100599.45;89816;273;136237;-76
2023/09/21 07:23:34;;;;;;;3.60;2.00;;;;;;;22.41;86.05;100602.88;90233;280;22494;-73
2023/09/21 07:25:37;;;;;;;1.80;1.70;;;;;;;22.46;83.39;100593.68;89048;279;137342;-74
2023/09/21 07:27:39;;;;;;;2.40;1.80;;;;;;;22.49;82.68;100593.80;89016;280;22553;-74
2023/09/21 07:29:41;;;;;;;3.00;1.90;;;;;;;22.51;82.17;100593.12;88322;281;584057;-74
2023/09/21 07:31:43;;;;;;;2.20;2.00;;;;;;;22.51;81.52;100594.16;88898;279;23259;-73
2023/09/21 07:33:45;;;;;;;2.40;2.00;;;;;;;22.47;80.25;100595.60;88738;280;136125;-72
2023/09/21 07:35:48;;;;;;;2.80;2.30;;;;;;;22.38;80.25;100594.89;88858;273;23662;-75
2023/09/21 07:37:50;;;;;;;2.50;2.20;;;;;;;22.21;81.21;100589.70;88779;273;137533;-78
2023/09/21 07:39:52;;;;;;;2.90;2.10;;;;;;;22.22;81.44;100596.35;88890;273;22574;-76
2023/09/21 07:41:54;;;;;;;2.50;1.50;;;;;;;22.14;81.61;100590.16;88898;279;136921;-75
2023/09/21 07:43:56;;;;;;;3.30;2.00;;;;;;;22.30;81.59;100597.37;89050;279;23388;-75
2023/09/21 07:45:59;;;;;;;2.30;2.10;;;;;;;22.36;81.77;100606.27;88764;278;135327;-72
2023/09/21 07:48:01;;;;;;;2.90;1.70;;;;;;;22.46;79.71;100603.45;88783;280;22546;-75
2023/09/21 07:50:04;;;;;;;2.10;1.90;;;;;;;22.48;79.24;100603.64;88797;277;24164;-74
2023/09/21 07:52:07;;;;;;;6.90;1.90;;;;;;;22.43;79.44;100600.06;88559;275;135794;-74
2023/09/21 07:54:09;;;;;;;2.80;1.90;;;;;;;22.34;80.02;100601.86;88947;273;22527;-74
2023/09/21 07:56:13;;;;;;;2.20;1.70;;;;;;;22.35;80.72;100597.08;88820;277;137333;-76
2023/09/21 07:58:15;;;;;;;2.10;1.90;;;;;;;22.42;81.11;100592.58;88952;279;22553;-73
2023/09/21 08:00:18;;;;;;;4.30;1.60;;;;;;;22.51;79.57;100594.21;88635;277;136300;-73
2023/09/21 08:02:20;;;;;;;1.70;1.60;;;;;;;22.58;79.24;100590.77;88797;273;22527;-73
2023/09/21 08:04:21;;;;;;;3.20;2.30;;;;;;;22.64;79.08;100590.92;88730;273;137241;-74
2023/09/21 08:06:27;;;;;;;3.30;1.80;;;;;;;22.71;79.13;100594.83;88796;273;25090;-72
2023/09/21 08:08:29;;;;;;;2.30;2.10;;;;;;;22.77;79.75;100591.48;88873;280;137031;-77
2023/09/21 08:10:32;;;;;;;2.00;1.80;;;;;;;22.81;80.30;100592.65;88904;280;24629;-76
2023/09/21 08:12:40;;;;;;;2.20;2.00;;;;;;;22.85;80.11;100590.00;88907;277;137080;-72
2023/09/21 08:14:42;;;;;;;4.80;2.50;;;;;;;22.87;79.42;100593.06;88850;280;22543;-75
2023/09/21 08:16:44;;;;;;;2.60;1.50;;;;;;;22.89;78.90;100595.84;88623;280;135813;-73
2023/09/21 08:18:47;;;;;;;3.00;2.60;;;;;;;22.93;79.05;100594.02;88932;274;22576;-79
2023/09/21 08:20:50;;;;;;;2.40;1.90;;;;;;;22.97;80.44;100589.30;88708;274;135893;-75
2023/09/21 08:22:53;;;;;;;3.00;2.80;;;;;;;22.98;80.97;100594.05;89108;279;22544;-74
2023/09/21 08:24:55;;;;;;;3.70;2.00;;;;;;;22.99;81.82;100585.56;89005;277;136416;-76
2023/09/21 08:26:58;;;;;;;2.80;2.30;;;;;;;23.02;82.18;100584.70;89137;273;22530;-75
2023/09/21 08:28:59;;;;;;;2.80;2.10;;;;;;;23.04;82.24;100592.41;88920;280;137249;-74
2023/09/21 08:31:01;;;;;;;2.40;2.30;;;;;;;23.07;82.16;100592.70;89017;273;24057;-73
2023/09/21 08:33:07;;;;;;;4.70;2.70;;;;;;;23.11;82.03;100586.63;88797;277;136048;-75
2023/09/21 08:35:10;;;;;;;6.70;2.80;;;;;;;23.11;81.93;100585.65;88904;272;24033;-75
2023/09/21 08:37:12;;;;;;;3.30;2.50;;;;;;;23.02;82.50;100589.94;88761;278;136231;-74
2023/09/21 08:39:13;;;;;;;5.70;2.30;;;;;;;22.94;82.85;100592.71;88818;277;23859;-78
2023/09/21 08:41:16;;;;;;;4.90;3.60;;;;;;;22.94;83.17;100591.19;88738;277;136241;-78
2023/09/21 08:43:24;;;;;;;3.30;2.50;;;;;;;22.96;83.12;100594.56;88669;276;22601;-72
2023/09/21 08:45:26;;;;;;;2.30;2.20;;;;;;;23.00;83.00;100594.86;88901;273;136053;-74
2023/09/21 08:47:28;;;;;;;2.10;2.00;;;;;;;23.03;82.86;100591.47;89063;273;25274;-72
2023/09/21 08:49:36;;;;;;;2.80;2.50;;;;;;;23.08;82.69;100591.39;88933;274;137008;-73
2023/09/21 08:51:40;;;;;;;6.20;2.70;;;;;;;23.12;82.86;100587.83;88872;278;22534;-75
2023/09/21 08:53:46;;;;;;;2.60;2.40;;;;;;;23.18;82.50;100589.36;88722;274;137066;-72
2023/09/21 08:55:49;;;;;;;2.30;2.20;;;;;;;23.25;82.45;100586.45;89051;273;22625;-69
2023/09/21 08:57:53;;;;;;;2.00;1.90;;;;;;;23.30;82.11;100590.33;88972;273;135964;-69
2023/09/21 08:59:56;;;;;;;3.80;2.40;;;;;;;23.37;81.86;100595.63;88997;280;24633;-71
2023/09/21 09:01:58;;;;;;;2.70;2.30;;;;;;;23.42;81.27;100593.95;88826;281;135557;-72
2023/09/21 09:04:00;;;;;;;2.90;2.60;;;;;;;23.44;81.12;100595.50;89205;274;23689;-72
2023/09/21 09:06:04;;;;;;;2.80;2.40;;;;;;;23.45;80.43;100594.23;88969;273;23989;-73
2023/09/21 09:08:06;;;;;;;3.00;2.50;;;;;;;23.44;80.27;100595.55;89299;280;136173;-75
2023/09/21 09:10:13;;;;;;;2.30;2.20;;;;;;;23.44;79.98;100594.40;89094;280;24040;-72
2023/09/21 09:12:24;;;;;;;4.30;1.80;;;;;;;23.44;80.02;100585.86;88836;280;137231;-72
2023/09/21 09:14:26;;;;;;;3.70;2.30;;;;;;;23.44;80.00;100589.77;89129;280;22533;-72
2023/09/21 09:16:29;;;;;;;3.50;2.70;;;;;;;23.43;79.62;100585.11;88860;274;137026;-73
2023/09/21 09:18:32;;;;;;;3.60;3.00;;;;;;;23.44;79.47;100588.58;88981;280;22557;-77
2023/09/21 09:20:37;;;;;;;2.90;2.20;;;;;;;23.44;79.71;100584.27;88898;281;135754;-72
2023/09/21 09:22:39;;;;;;;6.90;2.80;;;;;;;23.44;80.07;100579.21;88929;277;22544;-72
2023/09/21 09:24:41;;;;;;;6.70;2.30;;;;;;;23.48;79.97;100577.11;88805;280;136473;-73
2023/09/21 09:26:44;;;;;;;3.40;2.20;;;;;;;23.54;79.97;100576.46;88934;280;22578;-73
2023/09/21 09:28:47;;;;;;;3.60;2.30;;;;;;;23.60;80.19;100576.98;88823;278;135849;-74
2023/09/21 09:30:52;;;;;;;2.70;2.10;;;;;;;23.67;79.99;100579.05;88883;273;25194;-70
2023/09/21 09:32:55;;;;;;;2.80;2.20;;;;;;;23.72;79.51;100578.57;88795;273;136048;-71